createdAt,value
2017-06-03T00:00:49.610Z,1007.62
2017-06-03T00:01:49.619Z,1007.6
2017-06-03T00:02:49.632Z,1007.58
2017-06-03T00:03:49.637Z,1007.54
2017-06-03T00:04:49.652Z,1007.55
2017-06-03T00:05:49.653Z,1007.57
2017-06-03T00:06:49.712Z,1007.52
2017-06-03T00:07:49.671Z,1007.5
2017-06-03T00:08:49.678Z,1007.49
2017-06-03T00:09:49.687Z,1007.45
2017-06-03T00:10:49.700Z,1007.43
2017-06-03T00:11:49.705Z,1007.44
2017-06-03T00:12:49.714Z,1007.45
2017-06-03T00:13:49.723Z,1007.43
2017-06-03T00:14:49.733Z,1007.39
2017-06-03T00:15:49.791Z,1007.38
2017-06-03T00:16:49.749Z,1007.4
2017-06-03T00:17:49.758Z,1007.35
2017-06-03T00:18:49.767Z,1007.33
2017-06-03T00:19:49.776Z,1007.31
2017-06-03T00:20:49.785Z,1007.3
2017-06-03T00:21:49.794Z,1007.33
2017-06-03T00:22:49.851Z,1007.31
2017-06-03T00:23:49.810Z,1007.34
2017-06-03T00:24:49.819Z,1007.31
2017-06-03T00:25:49.879Z,1007.28
2017-06-03T00:26:49.838Z,1007.3
2017-06-03T00:27:49.847Z,1007.29
2017-06-03T00:28:49.855Z,1007.26
2017-06-03T00:29:49.864Z,1007.23
2017-06-03T00:30:49.871Z,1007.24
2017-06-03T00:31:49.880Z,1007.2
2017-06-03T00:32:49.890Z,1007.23
2017-06-03T00:33:49.897Z,1007.21
2017-06-03T00:34:49.906Z,1007.21
2017-06-03T00:35:49.915Z,1007.2
2017-06-03T00:36:49.924Z,1007.2
2017-06-03T00:37:49.932Z,1007.22
2017-06-03T00:38:49.941Z,1007.25
2017-06-03T00:39:49.950Z,1007.23
2017-06-03T00:40:49.958Z,1007.22
2017-06-03T00:41:49.967Z,1007.2
2017-06-03T00:42:49.975Z,1007.13
2017-06-03T00:43:49.985Z,1007.17
2017-06-03T00:44:49.993Z,1007.18
2017-06-03T00:45:50.004Z,1007.18
2017-06-03T00:46:50.012Z,1007.22
2017-06-03T00:47:50.070Z,1007.22
2017-06-03T00:48:50.029Z,1007.22
2017-06-03T00:49:50.039Z,1007.22
2017-06-03T00:50:50.045Z,1007.22
2017-06-03T00:51:50.055Z,1007.22
2017-06-03T00:52:50.063Z,1007.23
2017-06-03T00:53:50.072Z,1007.2
2017-06-03T00:54:50.079Z,1007.21
2017-06-03T00:55:50.088Z,1007.2
2017-06-03T00:56:50.095Z,1007.2
2017-06-03T00:57:50.108Z,1007.2
2017-06-03T00:58:50.115Z,1007.2
2017-06-03T00:59:50.123Z,1007.18
2017-06-03T01:00:50.182Z,1007.19
2017-06-03T01:01:50.142Z,1007.17
2017-06-03T01:02:50.151Z,1007.22
2017-06-03T01:03:50.160Z,1007.24
2017-06-03T01:04:50.168Z,1007.22
2017-06-03T01:05:50.227Z,1007.21
2017-06-03T01:06:50.186Z,1007.23
2017-06-03T01:07:50.193Z,1007.21
2017-06-03T01:08:50.205Z,1007.26
2017-06-03T01:09:50.213Z,1007.28
2017-06-03T01:10:50.221Z,1007.27
2017-06-03T01:11:50.231Z,1007.34
2017-06-03T01:12:50.239Z,1007.34
2017-06-03T01:13:50.300Z,1007.34
2017-06-03T01:14:50.257Z,1007.35
2017-06-03T01:15:50.267Z,1007.32
2017-06-03T01:16:50.276Z,1007.35
2017-06-03T01:17:50.284Z,1007.33
2017-06-03T01:18:50.344Z,1007.29
2017-06-03T01:19:50.303Z,1007.3
2017-06-03T01:20:50.312Z,1007.28
2017-06-03T01:21:50.321Z,1007.23
2017-06-03T01:22:50.329Z,1007.24
2017-06-03T01:23:50.339Z,1007.23
2017-06-03T01:24:50.348Z,1007.16
2017-06-03T01:25:50.356Z,1007.17
2017-06-03T01:26:50.365Z,1007.12
2017-06-03T01:27:50.376Z,1007.13
2017-06-03T01:28:50.383Z,1007.11
2017-06-03T01:29:50.442Z,1007.06
2017-06-03T01:30:50.403Z,1007.07
2017-06-03T01:31:50.411Z,1007.05
2017-06-03T01:32:50.419Z,1007.04
2017-06-03T01:33:50.427Z,1007.03
2017-06-03T01:34:50.437Z,1007.03
2017-06-03T01:35:50.447Z,1007.05
2017-06-03T01:36:50.455Z,1007.09
2017-06-03T01:37:50.463Z,1007.02
2017-06-03T01:38:50.474Z,1007.04
2017-06-03T01:39:50.481Z,1007.04
2017-06-03T01:40:50.490Z,1007.01
2017-06-03T01:41:50.499Z,1006.97
2017-06-03T01:42:50.508Z,1006.95
2017-06-03T01:43:50.517Z,1006.93
2017-06-03T01:44:50.525Z,1006.93
2017-06-03T01:45:50.535Z,1006.88
2017-06-03T01:46:50.542Z,1006.88
2017-06-03T01:47:50.553Z,1006.89
2017-06-03T01:48:50.561Z,1006.87
2017-06-03T01:49:50.618Z,1006.85
2017-06-03T01:50:50.627Z,1006.86
2017-06-03T01:51:50.587Z,1006.84
2017-06-03T01:52:50.593Z,1006.87
2017-06-03T01:53:50.604Z,1006.87
2017-06-03T01:54:50.613Z,1006.96
2017-06-03T01:55:50.620Z,1006.96
2017-06-03T01:56:50.630Z,1006.98
2017-06-03T01:57:50.637Z,1007
2017-06-03T01:58:50.647Z,1007.02
2017-06-03T01:59:50.657Z,1006.98
2017-06-03T02:00:50.965Z,1006.95
2017-06-03T02:01:50.673Z,1006.94
2017-06-03T02:02:50.731Z,1006.91
2017-06-03T02:03:50.691Z,1006.87
2017-06-03T02:04:50.701Z,1006.85
2017-06-03T02:05:50.707Z,1006.82
2017-06-03T02:06:50.717Z,1006.86
2017-06-03T02:07:50.725Z,1006.87
2017-06-03T02:08:50.733Z,1006.92
2017-06-03T02:09:50.743Z,1006.9
2017-06-03T02:10:50.751Z,1006.93
2017-06-03T02:11:50.759Z,1006.93
2017-06-03T02:12:50.768Z,1006.91
2017-06-03T02:13:50.775Z,1006.92
2017-06-03T02:14:50.785Z,1006.92
2017-06-03T02:15:50.794Z,1006.88
2017-06-03T02:16:50.800Z,1006.9
2017-06-03T02:17:50.810Z,1006.91
2017-06-03T02:18:50.819Z,1006.91
2017-06-03T02:19:50.826Z,1006.92
2017-06-03T02:20:50.836Z,1006.93
2017-06-03T02:21:50.893Z,1006.98
2017-06-03T02:22:50.901Z,1007.02
2017-06-03T02:23:50.861Z,1006.99
2017-06-03T02:24:50.869Z,1006.96
2017-06-03T02:25:50.879Z,1006.96
2017-06-03T02:26:50.889Z,1006.95
2017-06-03T02:27:50.895Z,1006.93
2017-06-03T02:28:50.903Z,1006.9
2017-06-03T02:29:50.913Z,1006.91
2017-06-03T02:30:50.921Z,1006.91
2017-06-03T02:31:50.931Z,1006.95
2017-06-03T02:32:50.939Z,1006.95
2017-06-03T02:33:50.950Z,1006.96
2017-06-03T02:34:50.961Z,1006.91
2017-06-03T02:35:50.967Z,1006.93
2017-06-03T02:36:50.977Z,1006.94
2017-06-03T02:37:50.985Z,1006.92
2017-06-03T02:38:50.994Z,1006.95
2017-06-03T02:39:51.003Z,1006.93
2017-06-03T02:40:51.012Z,1006.9
2017-06-03T02:41:51.021Z,1006.89
2017-06-03T02:42:51.030Z,1006.89
2017-06-03T02:43:51.039Z,1006.95
2017-06-03T02:44:51.098Z,1006.92
2017-06-03T02:45:51.055Z,1006.93
2017-06-03T02:46:51.066Z,1006.94
2017-06-03T02:47:51.076Z,1006.92
2017-06-03T02:48:51.084Z,1006.95
2017-06-03T02:49:51.094Z,1006.95
2017-06-03T02:50:51.102Z,1007.01
2017-06-03T02:51:51.111Z,1007
2017-06-03T02:52:51.120Z,1007.01
2017-06-03T02:53:51.129Z,1006.99
2017-06-03T02:54:51.138Z,1006.99
2017-06-03T02:55:51.148Z,1007.03
2017-06-03T02:56:51.155Z,1006.99
2017-06-03T02:57:51.163Z,1007.01
2017-06-03T02:58:51.174Z,1007.01
2017-06-03T02:59:51.182Z,1007.04
2017-06-03T03:00:51.190Z,1007
2017-06-03T03:01:51.198Z,1007.01
2017-06-03T03:02:51.207Z,1007.06
2017-06-03T03:03:51.215Z,1007.03
2017-06-03T03:04:51.222Z,1007.01
2017-06-03T03:05:51.233Z,1007.08
2017-06-03T03:06:51.242Z,1007.06
2017-06-03T03:07:51.250Z,1007.11
2017-06-03T03:08:51.260Z,1007.08
2017-06-03T03:09:51.268Z,1007.08
2017-06-03T03:10:51.277Z,1007.09
2017-06-03T03:11:51.286Z,1007.11
2017-06-03T03:12:51.345Z,1007.12
2017-06-03T03:13:51.304Z,1007.13
2017-06-03T03:14:51.312Z,1007.13
2017-06-03T03:15:51.320Z,1007.13
2017-06-03T03:16:51.379Z,1007.13
2017-06-03T03:17:51.338Z,1007.11
2017-06-03T03:18:51.348Z,1007.13
2017-06-03T03:19:51.356Z,1007.14
2017-06-03T03:20:51.365Z,1007.1
2017-06-03T03:21:51.374Z,1007.13
2017-06-03T03:22:51.432Z,1007.13
2017-06-03T03:23:51.392Z,1007.15
2017-06-03T03:24:51.403Z,1007.13
2017-06-03T03:25:51.408Z,1007.15
2017-06-03T03:26:51.417Z,1007.23
2017-06-03T03:27:51.426Z,1007.2
2017-06-03T03:28:51.435Z,1007.2
2017-06-03T03:29:51.452Z,1007.25
2017-06-03T03:30:51.450Z,1007.18
2017-06-03T03:31:51.460Z,1007.2
2017-06-03T03:32:51.469Z,1007.16
2017-06-03T03:33:51.478Z,1007.11
2017-06-03T03:34:51.487Z,1007.13
2017-06-03T03:35:51.494Z,1007.13
2017-06-03T03:36:51.555Z,1007.14
2017-06-03T03:37:51.512Z,1007.16
2017-06-03T03:38:51.521Z,1007.15
2017-06-03T03:39:51.530Z,1007.13
2017-06-03T03:40:51.539Z,1007.12
2017-06-03T03:41:51.848Z,1007.14
2017-06-03T03:42:51.557Z,1007.11
2017-06-03T03:43:51.564Z,1007.15
2017-06-03T03:44:51.573Z,1007.13
2017-06-03T03:45:51.583Z,1007.18
2017-06-03T03:46:51.590Z,1007.19
2017-06-03T03:47:51.648Z,1007.17
2017-06-03T03:48:51.608Z,1007.2
2017-06-03T03:49:51.617Z,1007.26
2017-06-03T03:50:51.625Z,1007.23
2017-06-03T03:51:51.632Z,1007.17
2017-06-03T03:52:51.644Z,1007.17
2017-06-03T03:53:51.701Z,1007.13
2017-06-03T03:54:51.660Z,1007.18
2017-06-03T03:55:51.667Z,1007.15
2017-06-03T03:56:51.676Z,1007.17
2017-06-03T03:57:51.685Z,1007.15
2017-06-03T03:58:51.693Z,1007.16
2017-06-03T03:59:51.700Z,1007.15
2017-06-03T04:00:51.710Z,1007.17
2017-06-03T04:01:51.719Z,1007.21
2017-06-03T04:02:51.726Z,1007.19
2017-06-03T04:03:51.733Z,1007.21
2017-06-03T04:04:51.743Z,1007.24
2017-06-03T04:05:51.752Z,1007.22
2017-06-03T04:06:51.761Z,1007.23
2017-06-03T04:07:51.769Z,1007.21
2017-06-03T04:08:51.778Z,1007.21
2017-06-03T04:09:51.786Z,1007.22
2017-06-03T04:10:51.795Z,1007.22
2017-06-03T04:11:51.804Z,1007.19
2017-06-03T04:12:52.115Z,1007.18
2017-06-03T04:13:51.822Z,1007.19
2017-06-03T04:14:51.837Z,1007.13
2017-06-03T04:15:51.841Z,1007.11
2017-06-03T04:16:51.848Z,1007.11
2017-06-03T04:17:51.857Z,1007.07
2017-06-03T04:18:51.868Z,1007.09
2017-06-03T04:19:51.876Z,1007.06
2017-06-03T04:20:51.885Z,1007.07
2017-06-03T04:21:51.894Z,1007.05
2017-06-03T04:22:51.902Z,1007.1
2017-06-03T04:23:51.912Z,1007.1
2017-06-03T04:24:51.919Z,1007.13
2017-06-03T04:25:51.980Z,1007.13
2017-06-03T04:26:51.939Z,1007.1
2017-06-03T04:27:51.946Z,1007.13
2017-06-03T04:28:51.956Z,1007.11
2017-06-03T04:29:51.965Z,1007.13
2017-06-03T04:30:51.973Z,1007.13
2017-06-03T04:31:51.981Z,1007.13
2017-06-03T04:32:51.991Z,1007.14
2017-06-03T04:33:52.001Z,1007.1
2017-06-03T04:34:52.010Z,1007.12
2017-06-03T04:35:52.067Z,1007.11
2017-06-03T04:36:52.025Z,1007.08
2017-06-03T04:37:52.034Z,1007.09
2017-06-03T04:38:52.042Z,1007.12
2017-06-03T04:39:52.052Z,1007.07
2017-06-03T04:40:52.060Z,1007.1
2017-06-03T04:41:52.070Z,1007.07
2017-06-03T04:42:52.076Z,1007.12
2017-06-03T04:43:52.086Z,1007.11
2017-06-03T04:44:52.095Z,1007.12
2017-06-03T04:45:52.104Z,1007.07
2017-06-03T04:46:52.110Z,1007.1
2017-06-03T04:47:52.120Z,1007.09
2017-06-03T04:48:52.129Z,1007.08
2017-06-03T04:49:52.138Z,1007.12
2017-06-03T04:50:52.145Z,1007.15
2017-06-03T04:51:52.156Z,1007.14
2017-06-03T04:52:52.163Z,1007.15
2017-06-03T04:53:52.170Z,1007.13
2017-06-03T04:54:52.180Z,1007.13
2017-06-03T04:55:52.190Z,1007.15
2017-06-03T04:56:52.249Z,1007.15
2017-06-03T04:57:52.257Z,1007.11
2017-06-03T04:58:52.215Z,1007.14
2017-06-03T04:59:52.225Z,1007.11
2017-06-03T05:00:52.533Z,1007.12
2017-06-03T05:01:52.242Z,1007.11
2017-06-03T05:02:52.300Z,1007.08
2017-06-03T05:03:52.260Z,1007.07
2017-06-03T05:04:52.268Z,1007.06
2017-06-03T05:05:52.277Z,1007.07
2017-06-03T05:06:52.287Z,1007.08
2017-06-03T05:07:52.295Z,1007.12
2017-06-03T05:08:52.304Z,1007.1
2017-06-03T05:09:52.314Z,1007.15
2017-06-03T05:10:52.322Z,1007.13
2017-06-03T05:11:52.330Z,1007.15
2017-06-03T05:12:52.340Z,1007.23
2017-06-03T05:13:52.349Z,1007.25
2017-06-03T05:14:52.358Z,1007.23
2017-06-03T05:15:52.366Z,1007.27
2017-06-03T05:16:52.374Z,1007.32
2017-06-03T05:17:52.383Z,1007.33
2017-06-03T05:18:52.391Z,1007.36
2017-06-03T05:19:52.400Z,1007.36
2017-06-03T05:20:52.410Z,1007.33
2017-06-03T05:21:52.420Z,1007.31
2017-06-03T05:22:52.429Z,1007.26
2017-06-03T05:23:52.436Z,1007.26
2017-06-03T05:24:52.445Z,1007.25
2017-06-03T05:25:52.453Z,1007.22
2017-06-03T05:26:52.461Z,1007.19
2017-06-03T05:27:52.471Z,1007.24
2017-06-03T05:28:52.480Z,1007.23
2017-06-03T05:29:52.787Z,1007.21
2017-06-03T05:30:52.495Z,1007.2
2017-06-03T05:31:52.505Z,1007.21
2017-06-03T05:32:52.513Z,1007.22
2017-06-03T05:33:52.524Z,1007.23
2017-06-03T05:34:52.530Z,1007.25
2017-06-03T05:35:52.540Z,1007.19
2017-06-03T05:36:52.548Z,1007.22
2017-06-03T05:37:52.556Z,1007.18
2017-06-03T05:38:52.565Z,1007.21
2017-06-03T05:39:52.574Z,1007.2
2017-06-03T05:40:52.582Z,1007.22
2017-06-03T05:41:52.642Z,1007.23
2017-06-03T05:42:52.599Z,1007.2
2017-06-03T05:43:52.608Z,1007.2
2017-06-03T05:44:52.617Z,1007.18
2017-06-03T05:45:52.627Z,1007.2
2017-06-03T05:46:52.636Z,1007.17
2017-06-03T05:47:52.645Z,1007.18
2017-06-03T05:48:52.652Z,1007.14
2017-06-03T05:49:52.661Z,1007.14
2017-06-03T05:50:52.670Z,1007.12
2017-06-03T05:51:52.676Z,1007.14
2017-06-03T05:52:52.686Z,1007.09
2017-06-03T05:53:52.697Z,1007.09
2017-06-03T05:54:52.706Z,1007.07
2017-06-03T05:55:52.713Z,1007.05
2017-06-03T05:56:52.723Z,1007.05
2017-06-03T05:57:52.731Z,1007.07
2017-06-03T05:58:52.740Z,1007.1
2017-06-03T05:59:52.748Z,1007.12
2017-06-03T06:00:52.757Z,1007.13
2017-06-03T06:01:52.768Z,1007.13
2017-06-03T06:02:52.776Z,1007.13
2017-06-03T06:03:52.786Z,1007.14
2017-06-03T06:04:52.792Z,1007.14
2017-06-03T06:05:52.801Z,1007.15
2017-06-03T06:06:52.809Z,1007.14
2017-06-03T06:07:52.818Z,1007.13
2017-06-03T06:08:52.828Z,1007.15
2017-06-03T06:09:52.838Z,1007.14
2017-06-03T06:10:52.846Z,1007.14
2017-06-03T06:11:52.855Z,1007.12
2017-06-03T06:12:52.864Z,1007.11
2017-06-03T06:13:52.873Z,1007.13
2017-06-03T06:14:53.182Z,1007.13
2017-06-03T06:15:52.892Z,1007.11
2017-06-03T06:16:52.951Z,1007.12
2017-06-03T06:17:52.909Z,1007.14
2017-06-03T06:18:52.918Z,1007.17
2017-06-03T06:19:52.928Z,1007.19
2017-06-03T06:20:52.937Z,1007.19
2017-06-03T06:21:52.946Z,1007.19
2017-06-03T06:22:52.954Z,1007.15
2017-06-03T06:23:52.963Z,1007.17
2017-06-03T06:24:52.973Z,1007.15
2017-06-03T06:25:52.985Z,1007.17
2017-06-03T06:26:52.991Z,1007.14
2017-06-03T06:27:53.001Z,1007.14
2017-06-03T06:28:53.013Z,1007.19
2017-06-03T06:29:53.018Z,1007.16
2017-06-03T06:30:53.028Z,1007.16
2017-06-03T06:31:53.037Z,1007.19
2017-06-03T06:32:53.097Z,1007.18
2017-06-03T06:33:53.056Z,1007.19
2017-06-03T06:34:53.065Z,1007.16
2017-06-03T06:35:53.123Z,1007.2
2017-06-03T06:36:53.083Z,1007.27
2017-06-03T06:37:53.141Z,1007.21
2017-06-03T06:38:53.102Z,1007.23
2017-06-03T06:39:53.108Z,1007.26
2017-06-03T06:40:53.117Z,1007.28
2017-06-03T06:41:53.125Z,1007.24
2017-06-03T06:42:53.183Z,1007.23
2017-06-03T06:43:53.142Z,1007.26
2017-06-03T06:44:53.152Z,1007.27
2017-06-03T06:45:53.212Z,1007.24
2017-06-03T06:46:53.170Z,1007.23
2017-06-03T06:47:53.228Z,1007.21
2017-06-03T06:48:53.186Z,1007.25
2017-06-03T06:49:53.196Z,1007.29
2017-06-03T06:50:53.204Z,1007.28
2017-06-03T06:51:53.264Z,1007.27
2017-06-03T06:52:53.223Z,1007.23
2017-06-03T06:53:53.231Z,1007.23
2017-06-03T06:54:53.240Z,1007.23
2017-06-03T06:55:53.248Z,1007.2
2017-06-03T06:56:53.258Z,1007.25
2017-06-03T06:57:53.265Z,1007.25
2017-06-03T06:58:53.273Z,1007.22
2017-06-03T06:59:53.284Z,1007.27
2017-06-03T07:00:53.345Z,1007.3
2017-06-03T07:01:53.302Z,1007.29
2017-06-03T07:02:53.312Z,1007.32
2017-06-03T07:03:53.321Z,1007.31
2017-06-03T07:04:53.329Z,1007.32
2017-06-03T07:05:53.392Z,1007.33
2017-06-03T07:06:53.348Z,1007.33
2017-06-03T07:07:53.358Z,1007.31
2017-06-03T07:08:53.366Z,1007.32
2017-06-03T07:09:53.375Z,1007.32
2017-06-03T07:10:53.385Z,1007.31
2017-06-03T07:11:53.395Z,1007.3
2017-06-03T07:12:53.403Z,1007.3
2017-06-03T07:13:53.413Z,1007.3
2017-06-03T07:14:53.421Z,1007.3
2017-06-03T07:15:53.429Z,1007.3
2017-06-03T07:16:53.438Z,1007.3
2017-06-03T07:17:53.448Z,1007.26
2017-06-03T07:18:53.456Z,1007.27
2017-06-03T07:19:53.465Z,1007.3
2017-06-03T07:20:53.474Z,1007.31
2017-06-03T07:21:53.535Z,1007.29
2017-06-03T07:22:53.493Z,1007.29
2017-06-03T07:23:53.500Z,1007.3
2017-06-03T07:24:53.511Z,1007.29
2017-06-03T07:25:53.519Z,1007.29
2017-06-03T07:26:53.535Z,1007.3
2017-06-03T07:27:53.537Z,1007.27
2017-06-03T07:28:53.545Z,1007.3
2017-06-03T07:29:53.554Z,1007.31
2017-06-03T07:30:53.562Z,1007.3
2017-06-03T07:31:53.570Z,1007.29
2017-06-03T07:32:53.586Z,1007.29
2017-06-03T07:33:53.589Z,1007.31
2017-06-03T07:34:53.597Z,1007.31
2017-06-03T07:35:53.654Z,1007.33
2017-06-03T07:36:53.616Z,1007.36
2017-06-03T07:37:53.622Z,1007.35
2017-06-03T07:38:53.633Z,1007.36
2017-06-03T07:39:53.642Z,1007.33
2017-06-03T07:40:53.650Z,1007.35
2017-06-03T07:41:53.660Z,1007.39
2017-06-03T07:42:53.669Z,1007.34
2017-06-03T07:43:53.678Z,1007.38
2017-06-03T07:44:53.687Z,1007.4
2017-06-03T07:45:53.718Z,1007.38
2017-06-03T07:46:53.704Z,1007.4
2017-06-03T07:47:53.714Z,1007.38
2017-06-03T07:48:53.724Z,1007.36
2017-06-03T07:49:53.731Z,1007.41
2017-06-03T07:50:53.741Z,1007.4
2017-06-03T07:51:53.750Z,1007.39
2017-06-03T07:52:53.757Z,1007.38
2017-06-03T07:53:53.767Z,1007.38
2017-06-03T07:54:53.776Z,1007.34
2017-06-03T07:55:53.785Z,1007.33
2017-06-03T07:56:53.793Z,1007.34
2017-06-03T07:57:53.803Z,1007.35
2017-06-03T07:58:53.812Z,1007.33
2017-06-03T07:59:53.821Z,1007.36
2017-06-03T08:00:53.829Z,1007.37
2017-06-03T08:01:53.866Z,1007.36
2017-06-03T08:02:53.846Z,1007.34
2017-06-03T08:03:53.855Z,1007.33
2017-06-03T08:04:53.863Z,1007.34
2017-06-03T08:05:53.874Z,1007.37
2017-06-03T08:06:53.885Z,1007.39
2017-06-03T08:07:53.893Z,1007.38
2017-06-03T08:08:53.901Z,1007.41
2017-06-03T08:09:53.911Z,1007.43
2017-06-03T08:10:53.919Z,1007.42
2017-06-03T08:11:53.928Z,1007.4
2017-06-03T08:12:53.938Z,1007.42
2017-06-03T08:13:53.948Z,1007.41
2017-06-03T08:14:54.006Z,1007.44
2017-06-03T08:15:53.966Z,1007.44
2017-06-03T08:16:53.979Z,1007.43
2017-06-03T08:17:53.984Z,1007.42
2017-06-03T08:18:53.993Z,1007.4
2017-06-03T08:19:54.003Z,1007.39
2017-06-03T08:20:54.063Z,1007.42
2017-06-03T08:21:54.021Z,1007.4
2017-06-03T08:22:54.031Z,1007.36
2017-06-03T08:23:54.040Z,1007.37
2017-06-03T08:24:54.050Z,1007.36
2017-06-03T08:25:54.058Z,1007.37
2017-06-03T08:26:54.075Z,1007.34
2017-06-03T08:27:54.078Z,1007.34
2017-06-03T08:28:54.086Z,1007.35
2017-06-03T08:29:54.106Z,1007.34
2017-06-03T08:31:54.115Z,1007.34
2017-06-03T08:32:54.124Z,1007.38
2017-06-03T08:33:54.133Z,1007.33
2017-06-03T08:34:54.142Z,1007.3
2017-06-03T08:36:54.265Z,1007.3
2017-06-03T08:37:54.171Z,1007.3
2017-06-03T08:38:54.180Z,1007.27
2017-06-03T08:39:54.193Z,1007.28
2017-06-03T08:40:54.198Z,1007.28
2017-06-03T08:41:54.208Z,1007.29
2017-06-03T08:42:54.268Z,1007.21
2017-06-03T08:43:54.226Z,1007.22
2017-06-03T08:44:54.287Z,1007.2
2017-06-03T08:45:54.247Z,1007.18
2017-06-03T08:46:54.257Z,1007.18
2017-06-03T08:48:54.277Z,1007.23
2017-06-03T08:49:54.287Z,1007.22
2017-06-03T08:50:54.300Z,1007.24
2017-06-03T08:51:54.306Z,1007.25
2017-06-03T08:52:54.317Z,1007.26
2017-06-03T08:53:54.375Z,1007.23
2017-06-03T08:54:54.334Z,1007.21
2017-06-03T08:55:54.344Z,1007.14
2017-06-03T08:56:54.356Z,1007.17
2017-06-03T08:57:54.365Z,1007.18
2017-06-03T08:58:54.375Z,1007.16
2017-06-03T08:59:54.386Z,1007.16
2017-06-03T09:00:54.396Z,1007.16
2017-06-03T09:01:54.403Z,1007.14
2017-06-03T09:02:54.414Z,1007.17
2017-06-03T09:03:54.423Z,1007.16
2017-06-03T09:04:54.434Z,1007.14
2017-06-03T09:05:54.443Z,1007.15
2017-06-03T09:06:54.455Z,1007.16
2017-06-03T09:07:54.463Z,1007.03
2017-06-03T09:08:54.475Z,1007.09
2017-06-03T09:09:54.485Z,1007.01
2017-06-03T09:10:54.545Z,1007.02
2017-06-03T09:11:54.506Z,1007.05
2017-06-03T09:12:54.514Z,1007.05
2017-06-03T09:13:54.524Z,1006.97
2017-06-03T09:14:54.534Z,1006.99
2017-06-03T09:16:54.554Z,1007.01
2017-06-03T09:17:54.564Z,1007.05
2017-06-03T09:18:54.575Z,1007.01
2017-06-03T09:19:54.584Z,1007.06
2017-06-03T09:20:54.595Z,1007.11
2017-06-03T09:22:54.615Z,1007.11
2017-06-03T09:23:54.624Z,1007.1
2017-06-03T09:24:54.634Z,1007.08
2017-06-03T09:26:54.656Z,1007.06
2017-06-03T09:27:54.665Z,1007.05
2017-06-03T09:28:54.675Z,1007.02
2017-06-03T09:29:54.686Z,1007.04
2017-06-03T09:30:54.746Z,1007.02
2017-06-03T09:31:54.719Z,1007.05
2017-06-03T09:32:54.715Z,1007.03
2017-06-03T09:33:54.726Z,1007.02
2017-06-03T09:34:54.735Z,1007.06
2017-06-03T09:35:54.746Z,1007.02
2017-06-03T09:36:54.756Z,1007.06
2017-06-03T09:37:54.768Z,1007.01
2017-06-03T09:38:54.774Z,1007.01
2017-06-03T09:39:54.785Z,1007.05
2017-06-03T09:40:54.846Z,1007.07
2017-06-03T09:41:54.805Z,1007.08
2017-06-03T09:42:54.816Z,1007.08
2017-06-03T09:43:54.826Z,1007.08
2017-06-03T09:44:54.886Z,1007.08
2017-06-03T09:45:54.846Z,1007.07
2017-06-03T09:46:54.856Z,1007.07
2017-06-03T09:47:54.866Z,1007.06
2017-06-03T09:48:54.877Z,1007.03
2017-06-03T09:49:54.937Z,1007.08
2017-06-03T09:50:54.898Z,1007.09
2017-06-03T09:52:54.917Z,1007.02
2017-06-03T09:53:54.927Z,1007.02
2017-06-03T09:54:54.936Z,1007.03
2017-06-03T09:55:54.948Z,1007.04
2017-06-03T09:56:54.958Z,1007.05
2017-06-03T09:57:54.967Z,1007.01
2017-06-03T09:58:54.978Z,1006.99
2017-06-03T09:59:54.987Z,1007.01
2017-06-03T10:01:55.009Z,1006.97
2017-06-03T10:02:55.018Z,1006.94
2017-06-03T10:03:55.028Z,1006.94
2017-06-03T10:04:55.037Z,1006.96
2017-06-03T10:05:55.049Z,1006.86
2017-06-03T10:06:55.060Z,1006.89
2017-06-03T10:07:55.067Z,1006.92
2017-06-03T10:08:55.078Z,1006.88
2017-06-03T10:09:55.089Z,1006.89
2017-06-03T10:10:55.100Z,1006.89
2017-06-03T10:11:55.111Z,1006.9
2017-06-03T10:12:55.135Z,1006.95
2017-06-03T10:13:55.131Z,1006.91
2017-06-03T10:14:55.140Z,1006.91
2017-06-03T10:15:55.151Z,1006.95
2017-06-03T10:16:55.162Z,1006.95
2017-06-03T10:17:55.171Z,1006.96
2017-06-03T10:18:55.182Z,1006.95
2017-06-03T10:19:55.244Z,1006.98
2017-06-03T10:20:55.203Z,1007
2017-06-03T10:21:55.215Z,1006.97
2017-06-03T10:22:55.223Z,1006.94
2017-06-03T10:23:55.232Z,1006.94
2017-06-03T10:24:55.245Z,1006.93
2017-06-03T10:25:55.254Z,1006.94
2017-06-03T10:26:55.314Z,1006.93
2017-06-03T10:27:55.327Z,1006.97
2017-06-03T10:28:55.286Z,1006.97
2017-06-03T10:29:55.295Z,1006.97
2017-06-03T10:30:55.330Z,1006.95
2017-06-03T10:31:55.317Z,1006.94
2017-06-03T10:32:55.377Z,1006.98
2017-06-03T10:33:55.337Z,1006.99
2017-06-03T10:34:55.346Z,1006.93
2017-06-03T10:35:55.358Z,1006.95
2017-06-03T10:36:55.373Z,1006.93
2017-06-03T10:37:55.380Z,1006.93
2017-06-03T10:38:55.389Z,1006.89
2017-06-03T10:39:55.399Z,1006.95
2017-06-03T10:41:55.419Z,1006.9
2017-06-03T10:42:55.430Z,1006.92
2017-06-03T10:43:55.441Z,1006.86
2017-06-03T10:44:55.449Z,1006.86
2017-06-03T10:45:55.460Z,1006.91
2017-06-03T10:46:55.472Z,1006.87
2017-06-03T10:47:55.480Z,1006.86
2017-06-03T10:48:55.493Z,1006.91
2017-06-03T10:49:55.502Z,1006.88
2017-06-03T10:50:55.514Z,1006.88
2017-06-03T10:51:55.522Z,1006.79
2017-06-03T10:52:55.533Z,1006.82
2017-06-03T10:53:55.569Z,1006.78
2017-06-03T10:54:55.604Z,1006.78
2017-06-03T10:55:55.566Z,1006.77
2017-06-03T10:56:55.580Z,1006.76
2017-06-03T10:57:55.587Z,1006.69
2017-06-03T10:58:55.595Z,1006.7
2017-06-03T10:59:55.657Z,1006.68
2017-06-03T11:00:55.618Z,1006.67
2017-06-03T11:01:55.628Z,1006.67
2017-06-03T11:02:55.637Z,1006.67
2017-06-03T11:03:55.648Z,1006.67
2017-06-03T11:04:55.659Z,1006.69
2017-06-03T11:05:55.719Z,1006.67
2017-06-03T11:07:55.690Z,1006.66
2017-06-03T11:09:55.710Z,1006.62
2017-06-03T11:11:55.731Z,1006.6
2017-06-03T11:12:55.741Z,1006.53
2017-06-03T11:13:55.758Z,1006.54
2017-06-03T11:14:55.761Z,1006.57
2017-06-03T11:15:55.773Z,1006.52
2017-06-03T11:16:55.783Z,1006.44
2017-06-03T11:17:55.794Z,1006.46
2017-06-03T11:18:55.805Z,1006.48
2017-06-03T11:19:55.815Z,1006.46
2017-06-03T11:20:55.823Z,1006.44
2017-06-03T11:21:55.833Z,1006.46
2017-06-03T11:22:55.895Z,1006.44
2017-06-03T11:23:55.858Z,1006.38
2017-06-03T11:25:55.874Z,1006.36
2017-06-03T11:26:55.885Z,1006.4
2017-06-03T11:27:55.895Z,1006.38
2017-06-03T11:28:55.905Z,1006.39
2017-06-03T11:30:55.925Z,1006.35
2017-06-03T11:31:55.934Z,1006.37
2017-06-03T11:32:55.944Z,1006.29
2017-06-03T11:33:55.953Z,1006.29
2017-06-03T11:34:56.015Z,1006.28
2017-06-03T11:36:55.985Z,1006.33
2017-06-03T11:38:56.004Z,1006.31
2017-06-03T11:39:56.015Z,1006.26
2017-06-03T11:40:56.026Z,1006.25
2017-06-03T11:41:56.036Z,1006.24
2017-06-03T11:42:56.045Z,1006.21
2017-06-03T11:43:56.054Z,1006.23
2017-06-03T11:44:56.064Z,1006.24
2017-06-03T11:45:56.074Z,1006.21
2017-06-03T11:46:56.083Z,1006.24
2017-06-03T11:48:56.105Z,1006.18
2017-06-03T11:49:56.113Z,1006.2
2017-06-03T11:50:56.124Z,1006.2
2017-06-03T11:52:56.144Z,1006.18
2017-06-03T11:54:56.164Z,1006.12
2017-06-03T11:55:56.178Z,1006.16
2017-06-03T11:56:56.186Z,1006.21
2017-06-03T11:57:56.193Z,1006.2
2017-06-03T11:58:56.204Z,1006.16
2017-06-03T11:59:56.215Z,1006.18
2017-06-03T12:00:56.273Z,1006.15
2017-06-03T12:01:56.265Z,1006.11
2017-06-03T12:02:56.244Z,1006.13
2017-06-03T12:03:56.254Z,1006.12
2017-06-03T12:04:56.315Z,1006.09
2017-06-03T12:05:56.276Z,1006.08
2017-06-03T12:06:56.285Z,1006.1
2017-06-03T12:07:56.296Z,1006.06
2017-06-03T12:08:56.305Z,1006.07
2017-06-03T12:09:56.315Z,1006.02
2017-06-03T12:10:56.328Z,1006.02
2017-06-03T12:11:56.388Z,1006.03
2017-06-03T12:12:56.396Z,1005.97
2017-06-03T12:13:56.357Z,1005.93
2017-06-03T12:14:56.367Z,1005.94
2017-06-03T12:15:56.377Z,1005.95
2017-06-03T12:17:56.399Z,1005.98
2017-06-03T12:18:56.409Z,1005.97
2017-06-03T12:19:56.419Z,1005.96
2017-06-03T12:20:56.430Z,1005.94
2017-06-03T12:21:56.441Z,1005.91
2017-06-03T12:22:56.450Z,1005.92
2017-06-03T12:24:56.471Z,1005.92
2017-06-03T12:25:56.483Z,1005.9
2017-06-03T12:26:56.543Z,1005.91
2017-06-03T12:27:56.504Z,1005.93
2017-06-03T12:28:56.516Z,1005.92
2017-06-03T12:29:56.526Z,1005.92